createdAt,value
2023-02-15T00:04:19.911Z,99.90
2023-02-15T00:09:23.841Z,99.90
2023-02-15T00:14:27.471Z,99.90
2023-02-15T00:19:32.505Z,99.90
2023-02-15T00:24:36.304Z,99.90
2023-02-15T00:29:40.099Z,99.90
2023-02-15T00:34:45.188Z,99.90
2023-02-15T00:39:48.940Z,99.90
2023-02-15T00:44:52.621Z,99.90
2023-02-15T00:49:59.288Z,99.90
2023-02-15T00:55:02.981Z,99.90
2023-02-15T01:00:08.025Z,99.90
2023-02-15T01:05:13.626Z,99.90
2023-02-15T01:10:18.133Z,99.90
2023-02-15T01:15:22.365Z,99.90
2023-02-15T01:20:29.579Z,99.90
2023-02-15T01:25:35.876Z,99.90
2023-02-15T01:30:39.633Z,99.90
2023-02-15T01:35:44.804Z,99.90
2023-02-15T01:40:48.508Z,99.90
2023-02-15T01:45:52.988Z,99.90
2023-02-15T01:51:00.912Z,99.90
2023-02-15T01:56:10.906Z,99.90
2023-02-15T02:01:14.584Z,99.90
2023-02-15T02:06:20.345Z,99.90
2023-02-15T02:11:24.487Z,99.90
2023-02-15T02:16:35.205Z,99.90
2023-02-15T02:22:10.238Z,99.90
2023-02-15T02:27:23.335Z,99.90
2023-02-15T02:32:56.859Z,99.90
2023-02-15T02:38:10.800Z,99.90
2023-02-15T02:43:22.691Z,99.90
2023-02-15T02:48:30.331Z,99.90
2023-02-15T02:53:36.402Z,99.90
2023-02-15T02:58:44.871Z,99.90
2023-02-15T03:03:52.752Z,99.90
2023-02-15T03:09:05.360Z,99.90
2023-02-15T03:14:09.367Z,99.90
2023-02-15T03:19:17.207Z,99.90
2023-02-15T03:24:29.889Z,99.90
2023-02-15T03:29:35.676Z,99.90
2023-02-15T03:34:39.792Z,99.90
2023-02-15T03:39:50.938Z,99.90
2023-02-15T03:45:00.618Z,99.90
2023-02-15T03:50:27.706Z,99.90
2023-02-15T03:55:33.116Z,99.90
2023-02-15T04:00:58.146Z,99.90
2023-02-15T04:06:03.527Z,99.90
2023-02-15T04:11:08.778Z,99.90
2023-02-15T04:16:12.459Z,99.90
2023-02-15T04:21:34.258Z,99.90
2023-02-15T04:26:39.284Z,99.90
2023-02-15T04:31:43.992Z,99.90
2023-02-15T04:36:47.773Z,99.90
2023-02-15T04:41:52.822Z,99.90
2023-02-15T04:46:56.891Z,99.90
2023-02-15T04:52:00.595Z,99.90
2023-02-15T04:57:05.711Z,99.90
2023-02-15T05:02:09.878Z,99.90
2023-02-15T05:07:13.593Z,99.90
2023-02-15T05:12:18.612Z,99.90
2023-02-15T05:17:22.247Z,99.90
2023-02-15T05:22:25.909Z,99.90
2023-02-15T05:27:48.630Z,99.90
2023-02-15T05:32:52.320Z,99.90
2023-02-15T05:37:55.993Z,99.90
2023-02-15T05:43:01.049Z,99.90
2023-02-15T05:48:04.966Z,99.90
2023-02-15T05:53:08.740Z,99.90
2023-02-15T05:58:13.758Z,99.90
2023-02-15T06:03:17.457Z,99.90
2023-02-15T06:08:21.499Z,99.90
2023-02-15T06:13:26.619Z,99.90
2023-02-15T06:18:30.378Z,99.90
2023-02-15T06:23:34.101Z,99.90
2023-02-15T06:28:39.383Z,99.90
2023-02-15T06:33:43.106Z,99.90
2023-02-15T06:38:46.864Z,99.90
2023-02-15T06:43:52.261Z,99.90
2023-02-15T06:48:56.032Z,99.90
2023-02-15T06:53:59.712Z,99.90
2023-02-15T06:59:04.715Z,99.90
2023-02-15T07:04:08.488Z,99.90
2023-02-15T07:09:12.324Z,99.90
2023-02-15T07:14:17.482Z,99.90
2023-02-15T07:19:21.204Z,99.90
2023-02-15T07:24:25.037Z,99.90
2023-02-15T07:29:30.348Z,99.90
2023-02-15T07:34:34.043Z,99.90
2023-02-15T07:39:37.765Z,99.90
2023-02-15T07:44:42.912Z,99.90
2023-02-15T07:49:46.939Z,99.90
2023-02-15T07:54:50.707Z,99.90
2023-02-15T07:59:55.938Z,99.90
2023-02-15T08:04:59.741Z,99.90
2023-02-15T08:10:03.577Z,99.90
2023-02-15T08:15:09.616Z,99.90
2023-02-15T08:20:14.491Z,99.90
2023-02-15T08:25:18.412Z,99.90
2023-02-15T08:30:23.757Z,99.90
2023-02-15T08:35:27.526Z,99.90
2023-02-15T08:40:31.281Z,99.90
2023-02-15T08:45:36.420Z,99.90
2023-02-15T08:50:40.534Z,99.90
2023-02-15T08:55:44.303Z,99.90
2023-02-15T09:00:49.426Z,99.90
2023-02-15T09:05:58.328Z,99.90
2023-02-15T09:11:12.291Z,99.90
2023-02-15T09:16:17.925Z,99.90
2023-02-15T09:21:23.235Z,99.90
2023-02-15T09:26:27.493Z,99.90
2023-02-15T09:31:34.419Z,99.90
2023-02-15T09:36:39.711Z,97.90
2023-02-15T09:42:08.904Z,91.80
2023-02-15T09:47:36.020Z,93.90
2023-02-15T09:53:03.122Z,99.60
2023-02-15T09:58:16.623Z,88.00
2023-02-15T10:03:42.182Z,84.90
2023-02-15T10:08:59.265Z,74.80
2023-02-15T10:14:16.606Z,72.70
2023-02-15T10:19:30.281Z,62.60
2023-02-15T10:24:49.288Z,64.70
2023-02-15T10:30:06.079Z,61.60
2023-02-15T10:35:16.917Z,59.00
2023-02-15T10:40:31.082Z,57.80
2023-02-15T10:45:46.846Z,57.60
2023-02-15T10:50:54.802Z,56.20
2023-02-15T10:56:05.267Z,56.40
2023-02-15T11:01:22.404Z,59.50
2023-02-15T11:06:29.475Z,62.90
2023-02-15T11:11:34.674Z,61.30
2023-02-15T11:16:41.838Z,62.30
2023-02-15T11:21:51.085Z,66.20
2023-02-15T11:26:59.698Z,67.50
2023-02-15T11:32:13.715Z,69.10
2023-02-15T11:37:26.450Z,71.50
2023-02-15T11:42:33.611Z,73.90
2023-02-15T11:47:37.342Z,75.10
2023-02-15T11:52:42.419Z,74.90
2023-02-15T11:57:52.564Z,75.60
2023-02-15T12:02:59.470Z,76.50
2023-02-15T12:08:11.592Z,77.60
2023-02-15T12:13:17.328Z,76.30
2023-02-15T12:18:29.449Z,77.50
2023-02-15T12:23:35.762Z,73.70
2023-02-15T12:28:43.251Z,74.10
2023-02-15T12:33:48.215Z,69.70
2023-02-15T12:39:23.263Z,74.10
2023-02-15T12:44:30.040Z,72.20
2023-02-15T12:49:34.995Z,67.90
2023-02-15T12:54:44.922Z,66.60
2023-02-15T12:59:53.251Z,68.60
2023-02-15T13:04:58.708Z,65.90
2023-02-15T13:10:04.017Z,62.50
2023-02-15T13:15:28.226Z,59.90
2023-02-15T13:20:32.989Z,61.60
2023-02-15T13:25:48.266Z,62.60
2023-02-15T13:30:53.324Z,63.50
2023-02-15T13:36:04.912Z,64.80
2023-02-15T13:41:16.948Z,65.30
2023-02-15T13:46:36.445Z,67.80
2023-02-15T13:51:45.575Z,67.20
2023-02-15T13:57:03.521Z,67.70
2023-02-15T14:02:35.801Z,69.00
2023-02-15T14:07:56.209Z,68.60
2023-02-15T14:13:31.411Z,68.70
2023-02-15T14:18:42.173Z,70.00
2023-02-15T14:23:56.617Z,71.20
2023-02-15T14:29:08.903Z,73.00
2023-02-15T14:34:23.157Z,72.70
2023-02-15T14:39:56.328Z,75.80
2023-02-15T14:45:06.704Z,75.80
2023-02-15T14:50:45.219Z,75.90
2023-02-15T14:55:49.150Z,78.30
2023-02-15T15:00:52.960Z,77.20
2023-02-15T15:06:03.228Z,78.70
2023-02-15T15:11:43.832Z,78.40
2023-02-15T15:16:53.374Z,78.10
2023-02-15T15:22:04.328Z,77.60
2023-02-15T15:27:39.968Z,79.60
2023-02-15T15:32:50.776Z,81.00
2023-02-15T15:38:23.169Z,79.00
2023-02-15T15:43:41.669Z,81.60
2023-02-15T15:48:45.636Z,82.10
2023-02-15T15:53:54.347Z,82.50
2023-02-15T15:59:02.491Z,85.40
2023-02-15T16:04:06.399Z,85.50
2023-02-15T16:09:18.655Z,83.40
2023-02-15T16:14:31.022Z,83.10
2023-02-15T16:19:39.782Z,85.40
2023-02-15T16:25:21.433Z,86.70
2023-02-15T16:30:31.084Z,88.50
2023-02-15T16:35:35.537Z,84.80
2023-02-15T16:40:53.456Z,89.00
2023-02-15T16:46:05.746Z,88.60
2023-02-15T16:51:10.706Z,87.90
2023-02-15T16:56:16.973Z,88.30
2023-02-15T17:01:24.937Z,90.00
2023-02-15T17:06:30.471Z,89.10
2023-02-15T17:11:41.811Z,89.60
2023-02-15T17:16:50.358Z,90.10
2023-02-15T17:21:56.608Z,90.70
2023-02-15T17:27:05.991Z,90.50
2023-02-15T17:32:18.868Z,89.90
2023-02-15T17:37:28.458Z,90.70
2023-02-15T17:42:33.525Z,91.10
2023-02-15T17:47:37.372Z,91.40
2023-02-15T17:52:41.096Z,91.30
2023-02-15T17:57:46.173Z,91.10
2023-02-15T18:03:07.211Z,91.30
2023-02-15T18:08:31.559Z,91.80
2023-02-15T18:13:36.664Z,92.30
2023-02-15T18:18:40.407Z,92.70
2023-02-15T18:23:44.134Z,92.30
2023-02-15T18:28:49.302Z,93.10
2023-02-15T18:33:55.756Z,93.30
2023-02-15T18:39:04.759Z,93.10
2023-02-15T18:44:13.727Z,94.20
2023-02-15T18:49:17.495Z,93.90
2023-02-15T18:54:23.930Z,94.80
2023-02-15T18:59:30.613Z,94.10
2023-02-15T19:04:34.381Z,94.00
2023-02-15T19:09:39.527Z,95.40
2023-02-15T19:14:45.057Z,93.80
2023-02-15T19:19:49.121Z,95.60
2023-02-15T19:24:53.874Z,96.30
2023-02-15T19:30:00.586Z,95.80
2023-02-15T19:35:05.382Z,96.00
2023-02-15T19:40:21.316Z,96.00
2023-02-15T19:45:29.674Z,96.80
2023-02-15T19:50:35.492Z,97.10
2023-02-15T19:55:39.307Z,96.30
2023-02-15T20:00:44.416Z,96.80
2023-02-15T20:05:48.190Z,98.20
2023-02-15T20:10:51.978Z,97.40
2023-02-15T20:15:57.156Z,97.50
2023-02-15T20:21:02.374Z,97.80
2023-02-15T20:26:14.479Z,98.90
2023-02-15T20:31:20.680Z,98.30
2023-02-15T20:36:24.798Z,99.40
2023-02-15T20:41:37.628Z,99.90
2023-02-15T20:46:42.829Z,99.90
2023-02-15T20:51:47.571Z,99.90
2023-02-15T20:56:51.598Z,99.90
2023-02-15T21:02:00.420Z,99.90
2023-02-15T21:07:04.498Z,99.90
2023-02-15T21:12:14.352Z,99.90
2023-02-15T21:17:21.073Z,99.90
2023-02-15T21:22:24.873Z,99.90
2023-02-15T21:27:29.719Z,99.90
2023-02-15T21:32:35.736Z,99.90
2023-02-15T21:37:40.254Z,99.90
2023-02-15T21:43:01.256Z,99.90
2023-02-15T21:48:06.572Z,99.90
2023-02-15T21:53:13.793Z,99.90
2023-02-15T21:58:21.214Z,99.90
2023-02-15T22:03:27.701Z,99.90
2023-02-15T22:08:36.856Z,99.90
2023-02-15T22:13:41.245Z,99.90
2023-02-15T22:18:47.088Z,99.90
2023-02-15T22:23:50.899Z,99.90
2023-02-15T22:28:54.808Z,99.90
2023-02-15T22:33:59.940Z,99.90
2023-02-15T22:39:03.626Z,99.90
2023-02-15T22:44:07.414Z,99.90
2023-02-15T22:49:14.608Z,99.90
2023-02-15T22:54:19.768Z,99.90
2023-02-15T22:59:28.392Z,99.90
2023-02-15T23:04:33.604Z,99.90
2023-02-15T23:09:37.287Z,99.90
2023-02-15T23:14:41.095Z,99.90
2023-02-15T23:19:46.674Z,99.90
2023-02-15T23:24:53.886Z,99.90
2023-02-15T23:29:57.686Z,99.90
2023-02-15T23:35:02.867Z,99.90
2023-02-15T23:40:27.975Z,99.90
2023-02-15T23:45:38.158Z,99.90
2023-02-15T23:50:43.750Z,99.90
2023-02-15T23:55:47.654Z,99.90
